createdAt,value
2023-01-01T00:02:02.223Z,100448.91
2023-01-01T00:04:28.967Z,100447.59
2023-01-01T00:06:55.436Z,100449.59
2023-01-01T00:09:40.516Z,100457.47
2023-01-01T00:12:07.105Z,100468.59
2023-01-01T00:14:33.727Z,100458.97
2023-01-01T00:17:00.219Z,100473.19
2023-01-01T00:19:26.694Z,100468.63
2023-01-01T00:21:53.991Z,100459.25
2023-01-01T00:24:20.496Z,100456.66
2023-01-01T00:26:47.007Z,100467.41
2023-01-01T00:29:13.531Z,100471.69
2023-01-01T00:31:40.028Z,100468.16
2023-01-01T00:34:06.587Z,100478.56
2023-01-01T00:36:33.072Z,100485.28
2023-01-01T00:38:59.546Z,100485.22
2023-01-01T00:41:26.050Z,100480.41
2023-01-01T00:43:52.531Z,100485.59
2023-01-01T00:46:19.116Z,100485.28
2023-01-01T00:48:46.002Z,100480.03
2023-01-01T00:51:12.650Z,100481.25
2023-01-01T00:53:39.180Z,100486.44
2023-01-01T00:56:06.476Z,100486.16
2023-01-01T00:58:33.000Z,100489.97
2023-01-01T01:00:59.738Z,100496.69
2023-01-01T01:03:29.204Z,100492.81
2023-01-01T01:06:10.952Z,100498.31
2023-01-01T01:08:40.789Z,100503.44
2023-01-01T01:11:13.050Z,100498.88
2023-01-01T01:13:41.269Z,100514.81
2023-01-01T01:16:10.562Z,100510.75
2023-01-01T01:18:37.394Z,100505.53
2023-01-01T01:21:04.278Z,100498.28
2023-01-01T01:23:30.814Z,100515.03
2023-01-01T01:26:10.952Z,100513.34
2023-01-01T01:28:37.659Z,100512.00
2023-01-01T01:31:04.815Z,100510.88
2023-01-01T01:33:31.351Z,100514.19
2023-01-01T01:35:57.923Z,100511.72
2023-01-01T01:38:24.673Z,100510.03
2023-01-01T01:40:51.437Z,100510.19
2023-01-01T01:43:25.127Z,100522.75
2023-01-01T01:46:01.841Z,100514.56
2023-01-01T01:48:28.639Z,100514.56
2023-01-01T01:50:56.522Z,100516.94
2023-01-01T01:53:29.923Z,100511.50
2023-01-01T01:56:00.316Z,100505.88
2023-01-01T01:58:29.725Z,100514.31
2023-01-01T02:00:57.069Z,100502.22
2023-01-01T02:03:31.578Z,100520.41
2023-01-01T02:09:44.783Z,100514.19
2023-01-01T02:12:11.352Z,100522.22
2023-01-01T02:14:37.891Z,100526.66
2023-01-01T02:17:18.343Z,100529.94
2023-01-01T02:19:55.286Z,100512.84
2023-01-01T02:22:36.799Z,100518.81
2023-01-01T02:25:29.528Z,100509.66
2023-01-01T02:28:06.333Z,100515.63
2023-01-01T02:30:35.254Z,100517.72
2023-01-01T02:33:12.084Z,100513.84
2023-01-01T02:35:45.605Z,100505.94
2023-01-01T02:38:16.883Z,100502.53
2023-01-01T02:40:48.613Z,100504.28
2023-01-01T02:43:17.888Z,100516.28
2023-01-01T02:45:48.474Z,100504.44
2023-01-01T02:48:48.928Z,100496.47
2023-01-01T02:51:27.532Z,100496.84
2023-01-01T02:54:20.770Z,100496.59
2023-01-01T02:57:11.016Z,100493.16
2023-01-01T03:00:17.042Z,100504.56
2023-01-01T03:03:02.937Z,100493.38
2023-01-01T03:06:10.912Z,100502.53
2023-01-01T03:08:48.264Z,100497.38
2023-01-01T03:11:18.800Z,100498.75
2023-01-01T03:14:14.657Z,100508.16
2023-01-01T03:17:06.973Z,100507.97
2023-01-01T03:19:39.243Z,100495.53
2023-01-01T03:22:17.211Z,100503.91
2023-01-01T03:25:12.254Z,100512.28
2023-01-01T03:27:46.639Z,100518.84
2023-01-01T03:30:15.771Z,100513.41
2023-01-01T03:33:07.948Z,100512.47
2023-01-01T03:35:40.610Z,100513.53
2023-01-01T03:38:56.403Z,100519.13
2023-01-01T03:41:40.392Z,100510.41
2023-01-01T03:44:24.729Z,100521.81
2023-01-01T03:46:51.780Z,100520.63
2023-01-01T03:49:20.469Z,100530.50
2023-01-01T03:52:23.552Z,100525.97
2023-01-01T03:55:08.213Z,100535.06
2023-01-01T03:58:09.299Z,100544.03
2023-01-01T04:00:40.929Z,100552.78
2023-01-01T04:03:19.710Z,100558.50
2023-01-01T04:05:46.352Z,100557.88
2023-01-01T04:08:15.498Z,100561.53
2023-01-01T04:10:48.911Z,100569.84
2023-01-01T04:13:15.797Z,100567.06
2023-01-01T04:15:42.284Z,100564.59
2023-01-01T04:18:09.212Z,100576.41
2023-01-01T04:20:35.663Z,100576.56
2023-01-01T04:23:03.900Z,100567.81
2023-01-01T04:25:30.571Z,100571.03
2023-01-01T04:28:03.573Z,100582.09
2023-01-01T04:30:30.502Z,100588.84
2023-01-01T04:32:56.975Z,100589.66
2023-01-01T04:35:23.676Z,100592.53
2023-01-01T04:37:50.134Z,100585.13
2023-01-01T04:40:16.593Z,100589.50
2023-01-01T04:42:43.499Z,100584.47
2023-01-01T04:45:12.413Z,100584.72
2023-01-01T04:47:39.031Z,100592.28
2023-01-01T04:50:06.125Z,100595.78
2023-01-01T04:52:33.535Z,100601.34
2023-01-01T04:54:59.996Z,100594.59
2023-01-01T04:57:26.432Z,100600.19
2023-01-01T04:59:52.875Z,100593.75
2023-01-01T05:02:19.592Z,100593.94
2023-01-01T05:04:46.243Z,100595.66
2023-01-01T05:07:12.884Z,100590.09
2023-01-01T05:09:39.304Z,100599.50
2023-01-01T05:12:06.052Z,100592.81
2023-01-01T05:14:33.497Z,100595.66
2023-01-01T05:16:59.939Z,100595.31
2023-01-01T05:19:26.430Z,100597.16
2023-01-01T05:21:54.203Z,100602.34
2023-01-01T05:24:20.684Z,100608.25
2023-01-01T05:26:47.192Z,100608.59
2023-01-01T05:29:17.048Z,100608.03
2023-01-01T05:31:44.897Z,100615.16
2023-01-01T05:34:11.589Z,100616.47
2023-01-01T05:36:39.111Z,100612.91
2023-01-01T05:44:29.282Z,100608.78
2023-01-01T05:46:55.800Z,100607.41
2023-01-01T05:49:22.301Z,100608.78
2023-01-01T05:54:42.439Z,100614.16
2023-01-01T05:57:08.920Z,100617.53
2023-01-01T05:59:35.580Z,100629.56
2023-01-01T06:02:02.326Z,100618.84
2023-01-01T06:04:28.943Z,100617.84
2023-01-01T06:06:55.445Z,100627.59
2023-01-01T06:09:21.923Z,100622.22
2023-01-01T06:11:48.318Z,100623.53
2023-01-01T06:16:46.135Z,100621.19
2023-01-01T06:19:12.679Z,100621.50
2023-01-01T06:29:38.587Z,100629.59
2023-01-01T06:32:05.281Z,100632.97
2023-01-01T06:37:07.342Z,100629.25
2023-01-01T06:39:33.948Z,100633.47
2023-01-01T06:47:15.912Z,100643.00
2023-01-01T06:49:42.534Z,100652.28
2023-01-01T06:52:08.999Z,100658.66
2023-01-01T06:54:35.462Z,100659.31
2023-01-01T06:57:01.880Z,100648.25
2023-01-01T06:59:28.390Z,100644.56
2023-01-01T07:01:54.950Z,100650.09
2023-01-01T07:04:21.539Z,100650.25
2023-01-01T07:06:48.175Z,100669.59
2023-01-01T07:14:52.227Z,100673.09
2023-01-01T07:17:18.742Z,100671.75
2023-01-01T07:19:45.240Z,100673.59
2023-01-01T07:22:12.216Z,100682.50
2023-01-01T07:27:14.109Z,100692.75
2023-01-01T07:32:29.253Z,100684.53
2023-01-01T07:37:37.388Z,100686.88
2023-01-01T07:40:04.196Z,100690.06
2023-01-01T07:42:30.657Z,100688.38
2023-01-01T07:44:57.156Z,100696.63
2023-01-01T07:47:25.780Z,100692.91
2023-01-01T07:55:11.549Z,100726.53
2023-01-01T07:57:38.059Z,100715.59
2023-01-01T08:00:05.155Z,100725.00
2023-01-01T08:02:31.743Z,100717.63
2023-01-01T08:07:25.956Z,100729.19
2023-01-01T08:49:04.372Z,100776.59
2023-01-01T08:51:30.815Z,100774.09
2023-01-01T08:53:57.219Z,100777.09
2023-01-01T08:56:23.719Z,100777.25
2023-01-01T08:58:50.327Z,100780.63
2023-01-01T09:01:17.210Z,100793.41
2023-01-01T09:03:43.729Z,100785.84
2023-01-01T09:06:10.420Z,100790.72
2023-01-01T09:08:36.912Z,100796.94
2023-01-01T09:11:03.752Z,100808.53
2023-01-01T09:13:30.583Z,100813.06
2023-01-01T09:15:57.496Z,100819.81
2023-01-01T09:18:24.292Z,100816.75
2023-01-01T09:20:50.746Z,100826.34
2023-01-01T09:23:17.636Z,100835.94
2023-01-01T09:25:44.086Z,100841.81
2023-01-01T09:28:12.833Z,100836.09
2023-01-01T09:30:39.582Z,100850.72
2023-01-01T09:33:06.086Z,100846.69
2023-01-01T09:35:32.692Z,100836.25
2023-01-01T09:37:59.172Z,100839.63
2023-01-01T09:40:49.180Z,100833.06
2023-01-01T09:43:23.233Z,100827.66
2023-01-01T09:45:52.450Z,100840.31
2023-01-01T09:48:19.069Z,100828.84
2023-01-01T09:50:46.727Z,100844.34
2023-01-01T09:53:32.445Z,100847.16
2023-01-01T09:56:01.663Z,100841.28
2023-01-01T09:58:33.376Z,100846.66
2023-01-01T10:01:02.950Z,100846.00
2023-01-01T10:03:47.820Z,100848.69
2023-01-01T10:06:34.668Z,100850.00
2023-01-01T10:09:15.292Z,100856.31
2023-01-01T10:12:20.207Z,100859.13
2023-01-01T10:14:57.886Z,100865.09
2023-01-01T10:17:39.058Z,100860.34
2023-01-01T10:20:19.682Z,100864.94
2023-01-01T10:22:52.455Z,100865.13
2023-01-01T10:25:22.630Z,100867.47
2023-01-01T10:27:59.909Z,100863.97
2023-01-01T10:30:28.002Z,100871.88
2023-01-01T10:32:56.071Z,100876.88
2023-01-01T10:35:30.034Z,100876.19
2023-01-01T10:37:59.189Z,100890.19
2023-01-01T10:40:27.940Z,100894.38
2023-01-01T10:43:00.342Z,100883.75
2023-01-01T10:45:33.535Z,100879.75
2023-01-01T10:48:26.366Z,100881.31
2023-01-01T10:50:56.534Z,100890.88
2023-01-01T10:53:41.605Z,100886.19
2023-01-01T10:56:13.931Z,100880.44
2023-01-01T10:58:48.665Z,100858.09
2023-01-01T11:01:18.023Z,100872.53
2023-01-01T11:04:13.273Z,100879.91
2023-01-01T11:06:42.531Z,100881.78
2023-01-01T11:09:22.777Z,100894.94
2023-01-01T11:12:00.761Z,100899.25
2023-01-01T11:14:53.736Z,100909.19
2023-01-01T11:17:35.083Z,100908.22
2023-01-01T11:20:04.418Z,100914.97
2023-01-01T11:22:50.317Z,100923.69
2023-01-01T11:25:28.595Z,100931.44
2023-01-01T11:28:16.807Z,100920.97
2023-01-01T11:31:03.842Z,100929.06
2023-01-01T11:33:34.603Z,100902.66
2023-01-01T11:36:01.633Z,100913.72
2023-01-01T11:38:30.439Z,100918.28
2023-01-01T11:41:04.386Z,100909.84
2023-01-01T11:43:38.304Z,100904.81
2023-01-01T11:46:09.034Z,100896.72
2023-01-01T11:48:36.890Z,100899.25
2023-01-01T11:51:06.613Z,100918.34
2023-01-01T11:53:41.552Z,100929.63
2023-01-01T11:56:14.657Z,100935.69
2023-01-01T11:59:06.455Z,100934.50
2023-01-01T12:01:35.838Z,100922.16
2023-01-01T12:04:20.844Z,100928.97
2023-01-01T12:07:26.061Z,100937.72
2023-01-01T12:10:01.479Z,100937.25
2023-01-01T12:12:39.595Z,100940.16
2023-01-01T12:15:24.704Z,100947.84
2023-01-01T12:18:17.991Z,100946.28
2023-01-01T12:20:51.382Z,100943.44
2023-01-01T12:23:19.243Z,100942.09
2023-01-01T12:26:04.715Z,100946.34
2023-01-01T12:28:39.354Z,100947.25
2023-01-01T12:31:05.749Z,100947.75
2023-01-01T12:33:38.011Z,100935.69
2023-01-01T12:36:23.568Z,100935.22
2023-01-01T12:39:14.109Z,100922.59
2023-01-01T12:42:01.390Z,100927.63
2023-01-01T12:44:39.845Z,100913.00
2023-01-01T12:47:30.751Z,100917.94
2023-01-01T12:50:05.729Z,100914.75
2023-01-01T12:53:14.795Z,100910.84
2023-01-01T12:55:59.803Z,100919.81
2023-01-01T12:58:51.915Z,100921.13
2023-01-01T13:01:28.474Z,100916.91
2023-01-01T13:04:02.562Z,100909.03
2023-01-01T13:06:50.048Z,100922.00
2023-01-01T13:09:22.838Z,100921.53
2023-01-01T13:12:04.350Z,100924.22
2023-01-01T13:14:39.529Z,100940.16
2023-01-01T13:17:23.523Z,100935.09
2023-01-01T13:19:57.773Z,100942.88
2023-01-01T13:22:27.214Z,100937.19
2023-01-01T13:25:21.569Z,100937.16
2023-01-01T13:28:00.615Z,100947.97
2023-01-01T13:30:36.206Z,100964.25
2023-01-01T13:33:25.005Z,100964.94
2023-01-01T13:36:07.395Z,100979.44
2023-01-01T13:38:49.555Z,100979.22
2023-01-01T13:41:46.357Z,100981.44
2023-01-01T13:44:23.327Z,100991.53
2023-01-01T13:46:59.001Z,101005.31
2023-01-01T13:49:37.703Z,101003.47
2023-01-01T13:52:22.899Z,101015.75
2023-01-01T13:55:18.531Z,101017.91
2023-01-01T13:57:50.990Z,101016.75
2023-01-01T14:00:30.259Z,101015.59
2023-01-01T14:03:03.226Z,101032.03
2023-01-01T14:05:41.003Z,101031.75
2023-01-01T14:08:30.129Z,101032.00
2023-01-01T14:10:57.600Z,101037.25
2023-01-01T14:13:29.970Z,101031.34
2023-01-01T14:16:09.024Z,101037.59
2023-01-01T14:18:43.424Z,101031.34
2023-01-01T14:21:21.769Z,101032.00
2023-01-01T14:23:52.667Z,101030.34
2023-01-01T14:26:21.298Z,101023.94
2023-01-01T14:28:48.145Z,101023.59
2023-01-01T14:31:21.754Z,101033.16
2023-01-01T14:33:48.763Z,101031.63
2023-01-01T14:36:17.698Z,101029.31
2023-01-01T14:38:46.075Z,101029.31
2023-01-01T14:41:51.136Z,101042.59
2023-01-01T14:44:21.525Z,101043.78
2023-01-01T14:46:50.811Z,101042.91
2023-01-01T14:49:26.052Z,101049.44
2023-01-01T14:52:00.952Z,101042.25
2023-01-01T14:54:33.199Z,101053.66
2023-01-01T14:57:00.768Z,101063.59
2023-01-01T14:59:30.736Z,101058.72
2023-01-01T15:02:12.706Z,101051.81
2023-01-01T15:04:39.977Z,101044.88
2023-01-01T15:07:06.665Z,101052.00
2023-01-01T15:09:33.597Z,101047.44
2023-01-01T15:12:00.446Z,101065.91
2023-01-01T15:14:35.750Z,101070.78
2023-01-01T15:17:07.199Z,101082.09
2023-01-01T15:19:35.321Z,101082.03
2023-01-01T15:22:08.214Z,101095.50
2023-01-01T15:24:37.570Z,101090.44
2023-01-01T15:27:06.611Z,101090.22
2023-01-01T15:29:38.111Z,101101.88
2023-01-01T15:32:08.300Z,101102.53
2023-01-01T15:34:42.707Z,101116.50
2023-01-01T15:37:20.011Z,101112.25
2023-01-01T15:39:49.960Z,101107.56
2023-01-01T15:42:48.862Z,101109.56
2023-01-01T15:45:21.397Z,101113.84
2023-01-01T15:47:53.433Z,101129.06
2023-01-01T15:50:30.133Z,101123.84
2023-01-01T15:53:09.740Z,101130.78
2023-01-01T15:55:43.100Z,101128.69
2023-01-01T15:58:26.500Z,101134.72
2023-01-01T16:01:00.503Z,101122.97
2023-01-01T16:03:31.779Z,101128.13
2023-01-01T16:05:58.583Z,101136.00
2023-01-01T16:08:25.446Z,101139.09
2023-01-01T16:10:52.826Z,101137.56
2023-01-01T16:13:19.847Z,101139.72
2023-01-01T16:16:04.607Z,101135.03
2023-01-01T16:18:33.988Z,101137.72
2023-01-01T16:21:02.587Z,101136.41
2023-01-01T16:23:29.196Z,101136.28
2023-01-01T16:25:55.639Z,101127.38
2023-01-01T16:28:22.166Z,101130.84
2023-01-01T16:30:48.819Z,101136.22
2023-01-01T16:33:18.195Z,101142.91
2023-01-01T16:35:45.179Z,101151.06
2023-01-01T16:38:11.714Z,101136.88
2023-01-01T16:40:38.495Z,101137.66
2023-01-01T16:43:09.380Z,101137.66
2023-01-01T16:45:36.222Z,101137.84
2023-01-01T16:48:02.635Z,101148.28
2023-01-01T16:50:29.154Z,101143.44
2023-01-01T16:52:55.663Z,101148.06
2023-01-01T16:55:22.123Z,101149.97
2023-01-01T16:57:48.658Z,101149.25
2023-01-01T17:00:15.727Z,101155.25
2023-01-01T17:02:42.563Z,101156.06
2023-01-01T17:05:10.680Z,101168.19
2023-01-01T17:07:37.205Z,101173.25
2023-01-01T17:10:04.411Z,101174.56
2023-01-01T17:12:31.523Z,101175.09
2023-01-01T17:14:58.007Z,101170.03
2023-01-01T17:17:24.688Z,101169.38
2023-01-01T17:19:51.175Z,101166.19
2023-01-01T17:22:17.806Z,101168.31
2023-01-01T17:24:44.267Z,101172.84
2023-01-01T17:27:10.795Z,101171.66
2023-01-01T17:29:37.395Z,101171.88
2023-01-01T17:32:04.013Z,101166.28
2023-01-01T17:34:30.472Z,101172.97
2023-01-01T17:36:56.937Z,101170.81
2023-01-01T17:39:23.444Z,101174.75
2023-01-01T17:41:49.899Z,101169.00
2023-01-01T17:44:16.371Z,101168.22
2023-01-01T17:46:44.224Z,101172.72
2023-01-01T17:49:11.278Z,101167.97
2023-01-01T17:51:39.271Z,101166.59
2023-01-01T17:54:10.297Z,101172.47
2023-01-01T17:56:36.995Z,101167.28
2023-01-01T17:59:03.548Z,101162.69
2023-01-01T18:01:32.621Z,101175.22
2023-01-01T18:04:05.430Z,101173.44
2023-01-01T18:06:38.676Z,101171.38
2023-01-01T18:09:10.530Z,101164.22
2023-01-01T18:11:37.032Z,101161.56
2023-01-01T18:14:04.206Z,101163.75
2023-01-01T18:16:33.196Z,101168.94
2023-01-01T18:19:01.325Z,101169.97
2023-01-01T18:21:28.211Z,101174.59
2023-01-01T18:23:56.345Z,101179.16
2023-01-01T18:26:24.878Z,101171.34
2023-01-01T18:28:59.707Z,101163.22
2023-01-01T18:31:28.613Z,101167.50
2023-01-01T18:33:56.006Z,101168.13
2023-01-01T18:36:25.637Z,101166.59
2023-01-01T18:39:01.527Z,101176.78
2023-01-01T18:41:39.548Z,101185.28
2023-01-01T18:44:18.362Z,101181.50
2023-01-01T18:46:49.703Z,101183.00
2023-01-01T18:49:16.599Z,101182.63
2023-01-01T18:51:43.079Z,101188.97
2023-01-01T18:54:15.609Z,101192.22
2023-01-01T18:56:42.115Z,101186.88
2023-01-01T18:59:20.330Z,101191.09
2023-01-01T19:01:47.536Z,101199.91
2023-01-01T19:04:14.313Z,101189.63
2023-01-01T19:06:40.985Z,101182.00
2023-01-01T19:09:25.318Z,101196.41
2023-01-01T19:11:55.168Z,101190.19
2023-01-01T19:14:24.406Z,101191.09
2023-01-01T19:16:54.935Z,101197.34
2023-01-01T19:19:23.056Z,101197.06
2023-01-01T19:21:53.128Z,101188.34
2023-01-01T19:24:24.383Z,101191.72
2023-01-01T19:27:10.149Z,101190.00
2023-01-01T19:29:42.020Z,101188.91
2023-01-01T19:32:08.520Z,101183.25
2023-01-01T19:34:36.870Z,101183.09
2023-01-01T19:37:03.352Z,101183.69
2023-01-01T19:39:34.425Z,101185.53
2023-01-01T19:42:05.003Z,101180.28
2023-01-01T19:44:32.250Z,101188.00
2023-01-01T19:47:00.531Z,101188.47
2023-01-01T19:49:27.937Z,101189.75
2023-01-01T19:51:54.506Z,101184.78
2023-01-01T19:54:20.983Z,101183.81
2023-01-01T19:56:47.633Z,101177.59
2023-01-01T19:59:14.057Z,101174.44
2023-01-01T20:01:40.642Z,101165.56
2023-01-01T20:04:07.392Z,101165.44
2023-01-01T20:06:36.254Z,101171.31
2023-01-01T20:09:02.998Z,101163.84
2023-01-01T20:11:31.790Z,101154.97
2023-01-01T20:13:58.477Z,101168.28
2023-01-01T20:16:24.989Z,101156.00
2023-01-01T20:18:51.622Z,101153.56
2023-01-01T20:21:36.523Z,101149.72
2023-01-01T20:24:03.221Z,101144.34
2023-01-01T20:26:29.818Z,101140.66
2023-01-01T20:29:14.664Z,101147.38
2023-01-01T20:31:41.831Z,101152.88
2023-01-01T20:34:08.356Z,101146.97
2023-01-01T20:36:53.385Z,101140.75
2023-01-01T20:39:19.932Z,101137.78
2023-01-01T20:41:46.377Z,101138.78
2023-01-01T20:44:12.840Z,101135.09
2023-01-01T20:46:40.001Z,101140.88
2023-01-01T20:49:06.767Z,101136.66
2023-01-01T20:51:33.380Z,101123.34
2023-01-01T20:54:00.192Z,101125.56
2023-01-01T20:56:27.558Z,101122.75
2023-01-01T20:59:00.131Z,101131.38
2023-01-01T21:01:31.445Z,101126.69
2023-01-01T21:03:58.035Z,101129.91
2023-01-01T21:06:25.051Z,101131.91
2023-01-01T21:08:52.539Z,101131.97
2023-01-01T21:11:19.051Z,101138.81
2023-01-01T21:13:45.839Z,101140.78
2023-01-01T21:16:25.627Z,101128.31
2023-01-01T21:18:52.311Z,101115.13
2023-01-01T21:21:44.063Z,101107.06
2023-01-01T21:24:18.342Z,101109.34
2023-01-01T21:26:45.399Z,101112.38
2023-01-01T21:29:15.130Z,101116.50
2023-01-01T21:31:43.044Z,101124.78
2023-01-01T21:34:34.566Z,101129.13
2023-01-01T21:37:39.476Z,101131.41
2023-01-01T21:40:38.119Z,101126.63
2023-01-01T21:43:04.678Z,101123.44
2023-01-01T21:45:35.804Z,101137.22
2023-01-01T21:48:15.652Z,101128.59
2023-01-01T21:50:45.221Z,101127.03
2023-01-01T21:53:33.345Z,101127.59
2023-01-01T21:56:04.534Z,101140.75
2023-01-01T21:59:02.672Z,101142.72
2023-01-01T22:01:43.619Z,101144.81
2023-01-01T22:04:10.127Z,101140.66
2023-01-01T22:06:41.702Z,101134.28
2023-01-01T22:09:19.755Z,101141.34
2023-01-01T22:11:47.688Z,101134.19
2023-01-01T22:14:18.947Z,101146.53
2023-01-01T22:16:49.318Z,101141.47
2023-01-01T22:19:22.071Z,101139.84
2023-01-01T22:21:50.520Z,101132.78
2023-01-01T22:24:34.908Z,101140.75
2023-01-01T22:27:13.468Z,101132.50
2023-01-01T22:29:39.949Z,101133.88
2023-01-01T22:32:20.648Z,101131.19
2023-01-01T22:34:48.518Z,101134.03
2023-01-01T22:37:37.719Z,101129.13
2023-01-01T22:40:07.952Z,101127.97
2023-01-01T22:42:38.951Z,101123.75
2023-01-01T22:45:14.267Z,101111.03
2023-01-01T22:47:44.592Z,101121.25
2023-01-01T22:50:26.818Z,101113.34
2023-01-01T22:52:53.616Z,101121.66
2023-01-01T22:55:20.073Z,101118.38
2023-01-01T22:57:47.037Z,101113.03
2023-01-01T23:00:15.514Z,101101.84
2023-01-01T23:02:42.012Z,101085.00
2023-01-01T23:05:09.127Z,101094.25
2023-01-01T23:07:41.967Z,101085.00
2023-01-01T23:10:13.662Z,101078.25
2023-01-01T23:12:40.136Z,101075.03
2023-01-01T23:15:25.789Z,101082.44
2023-01-01T23:17:52.253Z,101069.41
2023-01-01T23:20:18.873Z,101069.06
2023-01-01T23:22:49.765Z,101066.09
2023-01-01T23:25:18.788Z,101060.28
2023-01-01T23:27:46.328Z,101055.97
2023-01-01T23:30:13.840Z,101051.56
2023-01-01T23:32:41.760Z,101052.03
2023-01-01T23:35:09.208Z,101043.31
2023-01-01T23:37:35.730Z,101043.28
2023-01-01T23:40:02.349Z,101039.78
2023-01-01T23:42:28.782Z,101033.59
2023-01-01T23:44:55.244Z,101031.94
2023-01-01T23:47:21.859Z,101028.75
2023-01-01T23:49:48.389Z,101030.06
2023-01-01T23:52:14.826Z,101025.75
2023-01-01T23:54:41.405Z,101012.00
2023-01-01T23:57:07.866Z,101021.31
2023-01-01T23:59:34.313Z,101015.16
